createdAt,value
2023-03-22T00:00:29.543Z,4.70
2023-03-22T00:05:37.387Z,4.80
2023-03-22T00:10:45.661Z,5.00
2023-03-22T00:15:52.973Z,5.40
2023-03-22T00:21:01.414Z,4.70
2023-03-22T00:26:09.793Z,4.80
2023-03-22T00:31:18.228Z,4.90
2023-03-22T00:36:25.544Z,4.90
2023-03-22T00:41:33.588Z,5.60
2023-03-22T00:46:40.777Z,5.40
2023-03-22T00:51:48.362Z,5.10
2023-03-22T00:56:55.985Z,5.20
2023-03-22T01:02:04.626Z,5.50
2023-03-22T01:07:18.208Z,5.40
2023-03-22T01:12:26.219Z,6.20
2023-03-22T01:17:33.685Z,6.70
2023-03-22T01:22:41.390Z,6.30
2023-03-22T01:27:48.884Z,7.20
2023-03-22T01:32:56.345Z,7.20
2023-03-22T01:38:03.973Z,7.10
2023-03-22T01:43:18.822Z,7.40
2023-03-22T01:48:30.078Z,6.70
2023-03-22T01:53:41.482Z,7.00
2023-03-22T01:58:50.912Z,6.80
2023-03-22T02:04:05.169Z,7.70
2023-03-22T02:09:14.844Z,7.10
2023-03-22T02:14:51.216Z,7.40
2023-03-22T02:21:15.272Z,8.40
2023-03-22T02:26:59.834Z,7.50
2023-03-22T02:38:10.799Z,9.10
2023-03-22T02:43:31.463Z,9.00
2023-03-22T02:48:44.319Z,9.60
2023-03-22T02:53:57.746Z,9.90
2023-03-22T02:59:09.385Z,9.50
2023-03-22T03:04:23.197Z,10.00
2023-03-22T03:09:33.047Z,11.00
2023-03-22T03:14:41.350Z,11.40
2023-03-22T03:20:02.031Z,10.80
2023-03-22T03:25:19.107Z,11.00
2023-03-22T03:30:33.624Z,11.60
2023-03-22T03:35:45.979Z,12.30
2023-03-22T03:40:57.475Z,12.60
2023-03-22T03:46:06.039Z,13.50
2023-03-22T03:51:13.883Z,13.60
2023-03-22T03:56:21.641Z,12.80
2023-03-22T04:01:29.665Z,13.00
2023-03-22T04:06:46.067Z,13.10
2023-03-22T04:12:00.792Z,14.50
2023-03-22T04:17:09.349Z,12.90
2023-03-22T04:22:18.948Z,12.90
2023-03-22T04:27:26.858Z,12.90
2023-03-22T04:32:41.739Z,13.60
2023-03-22T04:37:52.039Z,13.20
2023-03-22T04:43:04.484Z,13.40
2023-03-22T04:48:23.285Z,13.50
2023-03-22T04:53:31.839Z,13.30
2023-03-22T04:58:44.342Z,13.70
2023-03-22T05:03:53.260Z,13.80
2023-03-22T05:09:02.617Z,13.10
2023-03-22T05:14:11.734Z,13.60
2023-03-22T05:19:22.744Z,13.50
2023-03-22T05:24:32.153Z,13.70
2023-03-22T05:29:45.821Z,14.30
2023-03-22T05:35:04.164Z,13.60
2023-03-22T05:40:16.018Z,13.00
2023-03-22T05:45:25.024Z,14.40
2023-03-22T05:50:43.177Z,14.60
2023-03-22T05:55:50.812Z,16.30
2023-03-22T06:01:01.699Z,16.50
2023-03-22T06:06:39.782Z,16.50
2023-03-22T06:11:52.308Z,17.40
2023-03-22T06:17:00.358Z,17.00
2023-03-22T06:22:08.234Z,19.10
2023-03-22T06:27:16.829Z,18.30
2023-03-22T06:32:25.209Z,20.50
2023-03-22T06:37:33.270Z,19.80
2023-03-22T06:42:41.311Z,19.50
2023-03-22T06:47:52.071Z,21.50
2023-03-22T06:53:09.424Z,22.10
2023-03-22T06:58:17.218Z,20.30
2023-03-22T07:03:24.538Z,22.60
2023-03-22T07:08:37.605Z,23.10
2023-03-22T07:13:46.196Z,23.70
2023-03-22T07:18:57.741Z,23.70
2023-03-22T07:24:07.223Z,24.90
2023-03-22T07:29:17.190Z,24.10
2023-03-22T07:34:24.655Z,23.90
2023-03-22T07:39:41.959Z,23.30
2023-03-22T07:44:50.211Z,23.80
2023-03-22T07:50:00.413Z,25.30
2023-03-22T07:55:14.789Z,25.00
2023-03-22T08:05:52.064Z,24.80
2023-03-22T08:11:00.630Z,24.80
2023-03-22T08:16:09.755Z,24.30
2023-03-22T08:21:18.923Z,24.10
2023-03-22T08:26:30.475Z,22.10
2023-03-22T08:31:42.637Z,23.20
2023-03-22T08:36:50.987Z,22.60
2023-03-22T08:41:58.786Z,22.00
2023-03-22T08:47:07.293Z,22.80
2023-03-22T08:52:15.302Z,24.90
2023-03-22T08:57:38.598Z,22.10
2023-03-22T09:03:05.826Z,23.90
2023-03-22T09:08:19.231Z,24.50
2023-03-22T09:13:31.675Z,22.70
2023-03-22T09:18:42.145Z,22.00
2023-03-22T09:23:53.092Z,23.40
2023-03-22T09:34:11.243Z,22.90
2023-03-22T09:39:19.351Z,23.50
2023-03-22T09:44:35.820Z,23.30
2023-03-22T09:49:53.650Z,23.80
2023-03-22T09:55:03.138Z,22.20
2023-03-22T10:00:24.727Z,23.20
2023-03-22T10:05:38.834Z,22.10
2023-03-22T10:10:47.260Z,21.90
2023-03-22T10:15:57.648Z,22.10
2023-03-22T10:21:07.895Z,22.90
2023-03-22T10:26:23.871Z,22.10
2023-03-22T10:31:33.200Z,23.90
2023-03-22T10:36:43.377Z,24.00
2023-03-22T10:41:52.607Z,23.70
2023-03-22T10:47:08.557Z,24.90
2023-03-22T10:52:31.364Z,23.80
2023-03-22T10:57:41.392Z,25.30
2023-03-22T11:03:00.370Z,26.80
2023-03-22T11:08:16.668Z,25.50
2023-03-22T11:13:24.939Z,27.80
2023-03-22T11:18:36.054Z,26.70
2023-03-22T11:23:50.266Z,25.90
2023-03-22T11:29:18.104Z,26.40
2023-03-22T11:34:28.307Z,27.20
2023-03-22T11:39:36.944Z,25.60
2023-03-22T11:44:47.002Z,27.80
2023-03-22T11:49:57.573Z,30.10
2023-03-22T11:55:07.133Z,26.80
2023-03-22T12:00:25.938Z,25.50
2023-03-22T12:05:36.111Z,28.20
2023-03-22T12:10:47.659Z,28.60
2023-03-22T12:15:59.663Z,30.90
2023-03-22T12:21:07.561Z,29.50
2023-03-22T12:26:19.927Z,32.90
2023-03-22T12:31:37.603Z,35.10
2023-03-22T12:36:51.856Z,33.00
2023-03-22T12:42:03.123Z,34.40
2023-03-22T12:47:20.816Z,35.00
2023-03-22T12:52:45.392Z,35.40
2023-03-22T12:57:56.554Z,35.70
2023-03-22T13:03:10.616Z,34.90
2023-03-22T13:08:23.521Z,36.80
2023-03-22T13:13:54.924Z,37.00
2023-03-22T13:19:07.080Z,37.70
2023-03-22T13:24:29.451Z,36.40
2023-03-22T13:29:42.375Z,35.60
2023-03-22T13:34:54.419Z,38.30
2023-03-22T13:40:06.241Z,36.90
2023-03-22T13:45:34.761Z,37.50
2023-03-22T13:50:43.471Z,39.20
2023-03-22T13:56:05.907Z,39.00
2023-03-22T14:06:29.214Z,37.20
2023-03-22T14:11:47.902Z,37.40
2023-03-22T14:17:07.083Z,38.30
